Time;durP1;ratioP1;P1;durP2;ratioP2;P2;SDS_P1;SDS_P2;PMS_P1;PMS_P2;Temp;Humidity;BMP_temperature;BMP_pressure;BME280_temperature;BME280_humidity;BME280_pressure;Samples;Min_cycle;Max_cycle;Signal;HPM_P1;HPM_P2
2022/10/29 00:00:40;;;;;;;5.27;1.37;;;16.10;63.10;;;;;;5119584;28;20763;-71
2022/10/29 00:03:07;;;;;;;2.00;1.20;;;16.10;64.80;;;;;;5118481;28;20448;-71
2022/10/29 00:05:36;;;;;;;8.90;1.10;;;16.10;65.20;;;;;;5118422;28;20503;-71
2022/10/29 00:08:03;;;;;;;1.97;1.10;;;16.10;68.80;;;;;;5118576;28;20443;-71
2022/10/29 00:10:30;;;;;;;3.97;1.23;;;16.10;63.10;;;;;;5117570;28;20455;-70
2022/10/29 00:13:01;;;;;;;3.90;1.20;;;16.10;58.20;;;;;;5116761;28;20445;-70
2022/10/29 00:15:28;;;;;;;8.77;1.40;;;16.10;50.30;;;;;;5118021;28;20495;-71
2022/10/29 00:17:55;;;;;;;2.20;1.20;;;16.00;43.30;;;;;;5117828;28;20870;-71
2022/10/29 00:20:22;;;;;;;3.60;1.03;;;16.00;56.30;;;;;;5118963;28;20480;-71
2022/10/29 00:22:53;;;;;;;2.93;1.07;;;15.90;56.80;;;;;;5119300;28;20459;-71
2022/10/29 00:25:20;;;;;;;4.03;1.13;;;15.90;54.30;;;;;;5119302;28;20549;-71
2022/10/29 00:27:47;;;;;;;2.13;1.10;;;15.90;57.30;;;;;;5117782;28;20868;-70
2022/10/29 00:30:15;;;;;;;2.30;1.00;;;15.90;60.60;;;;;;5117903;28;20448;-70
2022/10/29 00:32:42;;;;;;;3.70;1.10;;;15.90;57.90;;;;;;5118347;28;20445;-70
2022/10/29 00:35:09;;;;;;;1.70;1.20;;;15.90;60.50;;;;;;5118282;28;20813;-71
2022/10/29 00:37:36;;;;;;;2.87;1.10;;;15.90;68.30;;;;;;5116839;28;20437;-70
2022/10/29 00:40:05;;;;;;;2.23;1.30;;;15.90;66.40;;;;;;5118054;28;20445;-71
2022/10/29 00:42:32;;;;;;;2.20;1.00;;;16.00;66.10;;;;;;5119330;28;20452;-71
2022/10/29 00:44:59;;;;;;;6.30;1.10;;;16.00;61.30;;;;;;5119167;28;20445;-71
2022/10/29 00:47:29;;;;;;;3.00;1.10;;;15.90;61.80;;;;;;5118873;28;20481;-71
2022/10/29 00:49:59;;;;;;;3.87;1.07;;;15.90;61.70;;;;;;5118206;28;20440;-71
2022/10/29 00:52:29;;;;;;;2.67;1.20;;;15.80;56.80;;;;;;5116240;28;20463;-70
2022/10/29 00:54:58;;;;;;;6.53;1.00;;;15.80;67.30;;;;;;5118513;28;20441;-71
2022/10/29 00:57:31;;;;;;;1.90;1.00;;;15.70;84.40;;;;;;5118719;28;20440;-71
2022/10/29 00:59:58;;;;;;;2.57;1.03;;;15.80;88.80;;;;;;5118072;28;20454;-70
2022/10/29 01:02:27;;;;;;;2.43;1.10;;;15.80;85.30;;;;;;5118653;28;20868;-71
2022/10/29 01:04:54;;;;;;;2.83;1.20;;;15.70;89.60;;;;;;5118214;28;20449;-71
2022/10/29 01:07:22;;;;;;;3.27;2.07;;;15.80;91.00;;;;;;5117127;28;20769;-71
2022/10/29 01:09:50;;;;;;;4.57;1.20;;;15.70;85.30;;;;;;5118610;28;20456;-70
2022/10/29 01:12:48;;;;;;;3.43;1.10;;;15.80;90.40;;;;;;5118479;28;20453;-70
2022/10/29 01:15:25;;;;;;;2.00;1.33;;;15.80;78.10;;;;;;5118436;28;20880;-71
2022/10/29 01:18:10;;;;;;;2.40;1.10;;;15.80;71.30;;;;;;5117829;28;20467;-71
2022/10/29 01:21:11;;;;;;;1.20;1.00;;;15.80;83.80;;;;;;5092349;28;20464;-71
2022/10/29 01:24:16;;;;;;;2.43;0.90;;;15.70;78.40;;;;;;5097863;28;20441;-71
2022/10/29 01:27:10;;;;;;;2.43;0.83;;;15.80;77.10;;;;;;5097133;28;20489;-70
2022/10/29 01:29:55;;;;;;;3.37;0.90;;;15.80;81.80;;;;;;5096910;28;20896;-71
2022/10/29 01:32:31;;;;;;;1.70;0.87;;;15.80;83.70;;;;;;5096443;28;20448;-71
2022/10/29 01:35:04;;;;;;;1.40;0.90;;;15.80;70.20;;;;;;5096380;28;20805;-71
2022/10/29 01:37:39;;;;;;;3.20;1.00;;;15.80;55.80;;;;;;5098702;28;20445;-71
2022/10/29 01:40:10;;;;;;;1.70;0.90;;;15.80;58.30;;;;;;5097031;28;20730;-71
2022/10/29 01:42:39;;;;;;;1.93;1.20;;;15.70;71.00;;;;;;5098320;28;20746;-71
2022/10/29 01:45:12;;;;;;;2.50;1.13;;;15.70;86.90;;;;;;5098703;28;20861;-71
2022/10/29 01:47:42;;;;;;;2.70;1.10;;;15.70;89.00;;;;;;5099651;28;20489;-70
2022/10/29 01:50:14;;;;;;;1.30;0.90;;;15.80;91.80;;;;;;5100344;28;20446;-70
2022/10/29 01:52:42;;;;;;;5.33;1.17;;;15.80;89.30;;;;;;5098851;28;20832;-71
2022/10/29 01:55:09;;;;;;;3.20;1.10;;;15.80;90.50;;;;;;5098535;28;20881;-70
2022/10/29 01:57:38;;;;;;;3.50;1.10;;;15.80;79.70;;;;;;5098521;28;20450;-70
2022/10/29 02:00:11;;;;;;;1.40;0.97;;;15.70;84.60;;;;;;5097836;28;20449;-70
2022/10/29 02:02:54;;;;;;;2.60;1.30;;;15.70;90.50;;;;;;5096883;28;20515;-70
2022/10/29 02:05:29;;;;;;;3.03;1.00;;;15.60;93.00;;;;;;5097418;28;20900;-71
2022/10/29 02:08:03;;;;;;;3.83;1.00;;;15.60;97.30;;;;;;5097218;28;20943;-70
2022/10/29 02:10:36;;;;;;;1.47;1.00;;;15.70;96.00;;;;;;5097039;28;20458;-70
2022/10/29 02:13:04;;;;;;;3.13;1.07;;;15.70;93.60;;;;;;5097205;28;20442;-71
2022/10/29 02:15:35;;;;;;;2.13;0.90;;;15.70;90.40;;;;;;5096851;28;20457;-70
2022/10/29 02:18:06;;;;;;;3.70;1.10;;;15.70;80.60;;;;;;5096397;28;20441;-71
2022/10/29 02:20:33;;;;;;;1.50;0.90;;;15.70;91.90;;;;;;5116493;28;20491;-70
2022/10/29 02:23:01;;;;;;;2.47;1.00;;;15.70;94.00;;;;;;5117421;28;20596;-70
2022/10/29 02:25:29;;;;;;;4.23;1.00;;;15.90;91.00;;;;;;5117051;28;20871;-70
2022/10/29 02:27:56;;;;;;;2.67;0.97;;;16.00;69.20;;;;;;5117068;28;20779;-70
2022/10/29 02:30:23;;;;;;;4.70;1.20;;;16.00;53.50;;;;;;5116815;28;20456;-71
2022/10/29 02:32:50;;;;;;;3.30;1.30;;;15.80;60.60;;;;;;5116670;28;20447;-71
2022/10/29 02:35:18;;;;;;;2.70;1.47;;;15.70;82.00;;;;;;5116753;28;20452;-71
2022/10/29 02:37:45;;;;;;;4.07;1.10;;;15.70;97.00;;;;;;5116944;28;20433;-71
2022/10/29 02:40:14;;;;;;;3.00;1.10;;;15.70;99.90;;;;;;5117241;28;20445;-71
2022/10/29 02:42:41;;;;;;;1.70;1.10;;;15.70;99.90;;;;;;5117109;28;20444;-71
2022/10/29 02:45:09;;;;;;;3.10;1.20;;;15.70;99.90;;;;;;5117025;28;20441;-71
2022/10/29 02:47:36;;;;;;;2.27;1.20;;;15.70;99.90;;;;;;5116404;28;20507;-70
2022/10/29 02:50:03;;;;;;;3.70;1.97;;;15.60;99.90;;;;;;5116495;28;20718;-70
2022/10/29 02:52:32;;;;;;;2.93;1.10;;;15.60;99.90;;;;;;5116538;28;20451;-71
2022/10/29 02:54:59;;;;;;;2.97;1.00;;;15.50;99.90;;;;;;5116216;28;20910;-71
2022/10/29 02:57:26;;;;;;;2.87;1.10;;;15.40;99.90;;;;;;5116576;28;20440;-71
2022/10/29 02:59:53;;;;;;;1.90;1.63;;;15.40;99.90;;;;;;5116370;28;20449;-70
2022/10/29 03:02:20;;;;;;;1.90;1.00;;;15.50;99.90;;;;;;5116496;28;20456;-71
2022/10/29 03:04:47;;;;;;;3.57;1.20;;;15.50;99.90;;;;;;5116186;28;20441;-70
2022/10/29 03:07:14;;;;;;;2.97;1.20;;;15.40;99.90;;;;;;5117251;28;20492;-70
2022/10/29 03:09:42;;;;;;;1.57;1.20;;;15.50;99.90;;;;;;5116264;28;20459;-71
2022/10/29 03:12:09;;;;;;;2.93;1.10;;;15.50;99.90;;;;;;5117062;28;20513;-70
2022/10/29 03:14:36;;;;;;;4.40;1.27;;;15.40;99.90;;;;;;5114639;28;20448;-71
2022/10/29 03:17:03;;;;;;;1.93;1.10;;;15.40;99.90;;;;;;5115670;28;20448;-71
2022/10/29 03:19:30;;;;;;;3.00;1.30;;;15.30;99.90;;;;;;5115739;28;20484;-71
2022/10/29 03:21:57;;;;;;;3.93;1.00;;;15.30;99.90;;;;;;5115588;28;20457;-71
2022/10/29 03:24:24;;;;;;;4.00;1.13;;;15.30;99.90;;;;;;5115185;28;20452;-70
2022/10/29 03:26:53;;;;;;;2.17;1.20;;;15.40;99.90;;;;;;5115972;28;20939;-71
2022/10/29 03:29:20;;;;;;;2.30;0.83;;;15.50;99.90;;;;;;5115279;28;20444;-71
2022/10/29 03:31:47;;;;;;;2.87;1.20;;;15.60;99.90;;;;;;5115494;28;20883;-71
2022/10/29 03:34:14;;;;;;;7.00;1.30;;;15.70;99.90;;;;;;5115127;28;20452;-70
2022/10/29 03:36:41;;;;;;;6.10;1.67;;;15.80;99.90;;;;;;5113386;28;20938;-71
2022/10/29 03:39:08;;;;;;;4.53;1.20;;;15.70;99.90;;;;;;5112922;28;20437;-70
2022/10/29 03:41:35;;;;;;;2.30;1.20;;;15.60;99.90;;;;;;5113275;28;20514;-70
2022/10/29 03:44:04;;;;;;;5.87;1.90;;;15.60;99.90;;;;;;5113443;28;20449;-71
2022/10/29 03:46:31;;;;;;;3.17;1.40;;;15.60;99.90;;;;;;5114044;28;20465;-71
2022/10/29 03:48:58;;;;;;;1.90;1.20;;;15.60;99.90;;;;;;5115040;28;20453;-71
2022/10/29 03:51:25;;;;;;;3.00;1.10;;;15.60;99.90;;;;;;5115843;28;20892;-70
2022/10/29 03:53:52;;;;;;;2.57;1.00;;;15.70;99.90;;;;;;5109825;28;20548;-71
2022/10/29 03:56:19;;;;;;;2.73;1.00;;;15.80;99.90;;;;;;5094595;28;20457;-71
2022/10/29 03:58:46;;;;;;;1.60;1.10;;;15.90;94.00;;;;;;5095036;28;20453;-71
2022/10/29 04:01:14;;;;;;;4.30;1.17;;;15.80;90.00;;;;;;5094936;28;20462;-71
2022/10/29 04:03:42;;;;;;;2.73;1.00;;;15.80;92.70;;;;;;5094529;28;20453;-71
2022/10/29 04:06:12;;;;;;;3.03;1.20;;;15.80;93.00;;;;;;5094552;28;20453;-70
2022/10/29 04:08:39;;;;;;;2.93;1.00;;;15.80;90.60;;;;;;5094969;28;20481;-71
2022/10/29 04:11:08;;;;;;;2.10;1.17;;;15.60;94.70;;;;;;5095436;28;21006;-71
2022/10/29 04:13:35;;;;;;;3.60;0.97;;;15.60;99.90;;;;;;5095361;28;20795;-70
2022/10/29 04:16:02;;;;;;;3.07;1.30;;;15.60;99.90;;;;;;5094636;28;20457;-70
2022/10/29 04:18:31;;;;;;;7.13;1.10;;;15.70;99.90;;;;;;5094957;28;20760;-71
2022/10/29 04:21:00;;;;;;;3.17;1.43;;;15.70;99.90;;;;;;5095503;28;20457;-71
2022/10/29 04:23:28;;;;;;;5.27;1.40;;;15.70;99.90;;;;;;5094888;28;20842;-71
2022/10/29 04:25:56;;;;;;;2.93;1.00;;;15.70;99.90;;;;;;5094299;28;20459;-70
2022/10/29 04:28:23;;;;;;;3.27;0.97;;;15.70;99.90;;;;;;5097431;28;20481;-71
2022/10/29 04:30:50;;;;;;;2.33;0.90;;;15.70;99.90;;;;;;5097186;28;20464;-71
2022/10/29 04:33:18;;;;;;;2.00;1.10;;;15.70;99.90;;;;;;5097618;28;20743;-71
2022/10/29 04:35:53;;;;;;;3.80;1.00;;;15.70;99.90;;;;;;5098206;28;20458;-71
2022/10/29 04:38:20;;;;;;;1.77;0.97;;;15.60;99.90;;;;;;5098050;28;20530;-71
2022/10/29 04:40:47;;;;;;;3.10;1.50;;;15.70;99.90;;;;;;5098736;28;20466;-71
2022/10/29 04:43:14;;;;;;;2.30;1.07;;;15.60;99.90;;;;;;5098496;28;20437;-70
2022/10/29 04:45:41;;;;;;;3.50;1.10;;;15.60;99.90;;;;;;5098637;28;20461;-71
2022/10/29 04:48:09;;;;;;;3.67;1.10;;;15.50;99.90;;;;;;5098793;28;20477;-71
2022/10/29 04:50:38;;;;;;;2.10;1.10;;;15.60;99.90;;;;;;5098673;28;20453;-71
2022/10/29 04:53:07;;;;;;;5.27;1.10;;;15.50;99.90;;;;;;5098904;28;20482;-71
2022/10/29 04:55:37;;;;;;;1.33;0.90;;;15.50;99.90;;;;;;5098281;28;20481;-71
2022/10/29 04:58:04;;;;;;;4.13;1.30;;;15.60;99.90;;;;;;5098473;28;20441;-71
2022/10/29 05:00:32;;;;;;;3.30;1.20;;;15.50;99.90;;;;;;5098186;28;20453;-71
2022/10/29 05:02:59;;;;;;;2.13;1.30;;;15.40;99.90;;;;;;5098196;28;20442;-69
2022/10/29 05:05:26;;;;;;;2.10;1.30;;;15.20;99.90;;;;;;5097687;28;20457;-70
2022/10/29 05:07:58;;;;;;;4.33;1.00;;;15.10;99.90;;;;;;5098251;28;20961;-71
2022/10/29 05:10:27;;;;;;;4.23;1.47;;;15.20;99.90;;;;;;5098806;28;20548;-71
2022/10/29 05:12:58;;;;;;;3.70;1.10;;;15.20;99.90;;;;;;5098455;28;20445;-70
2022/10/29 05:15:25;;;;;;;4.50;1.17;;;15.20;99.90;;;;;;5097906;28;20464;-71
2022/10/29 05:17:52;;;;;;;2.03;1.10;;;15.20;99.90;;;;;;5097500;28;20445;-71
2022/10/29 05:20:19;;;;;;;2.47;1.20;;;15.20;99.90;;;;;;5097334;28;20477;-71
2022/10/29 05:22:46;;;;;;;3.97;1.17;;;15.10;99.90;;;;;;5098608;28;20445;-71
2022/10/29 05:25:13;;;;;;;3.47;1.00;;;15.10;99.90;;;;;;5097458;28;20499;-72
2022/10/29 05:27:42;;;;;;;3.67;1.20;;;15.10;99.90;;;;;;5098090;28;20971;-71
2022/10/29 05:30:14;;;;;;;3.37;1.00;;;15.20;99.90;;;;;;5098189;28;20818;-70
2022/10/29 05:32:41;;;;;;;3.00;1.20;;;15.10;99.90;;;;;;5098031;28;20442;-71
2022/10/29 05:35:08;;;;;;;2.67;1.20;;;15.10;99.90;;;;;;5097931;28;20446;-71
2022/10/29 05:37:35;;;;;;;3.40;1.10;;;15.10;99.90;;;;;;5097683;28;20445;-71
2022/10/29 05:40:03;;;;;;;1.93;1.00;;;15.00;99.90;;;;;;5097447;28;20449;-71
2022/10/29 05:42:30;;;;;;;1.70;0.80;;;15.00;99.90;;;;;;5097122;28;20449;-72
2022/10/29 05:44:58;;;;;;;3.10;0.80;;;14.90;99.90;;;;;;5097419;28;20884;-71
2022/10/29 05:47:25;;;;;;;2.37;1.10;;;14.90;99.90;;;;;;5097498;28;20497;-71
2022/10/29 05:49:52;;;;;;;2.90;0.90;;;14.90;99.90;;;;;;5103626;28;20890;-72
2022/10/29 05:52:19;;;;;;;3.83;1.10;;;14.80;99.90;;;;;;5097878;28;20454;-72
2022/10/29 05:54:46;;;;;;;3.73;0.90;;;14.80;99.90;;;;;;5099415;28;20449;-72
2022/10/29 05:57:13;;;;;;;2.90;1.00;;;14.80;99.90;;;;;;5111681;28;20453;-72
2022/10/29 05:59:40;;;;;;;1.90;1.00;;;14.70;99.90;;;;;;5097469;28;20449;-72
2022/10/29 06:02:10;;;;;;;1.80;1.30;;;14.70;99.90;;;;;;5098025;28;20889;-72
2022/10/29 06:04:37;;;;;;;3.20;0.97;;;14.80;99.90;;;;;;5098469;28;20806;-72
2022/10/29 06:07:04;;;;;;;3.50;1.27;;;14.80;99.90;;;;;;5101721;28;20449;-72
2022/10/29 06:09:31;;;;;;;1.60;0.90;;;14.90;99.90;;;;;;5100635;28;20453;-73
2022/10/29 06:11:58;;;;;;;3.40;1.20;;;15.00;99.90;;;;;;5099002;28;20450;-72
2022/10/29 06:14:25;;;;;;;2.90;0.90;;;15.10;99.90;;;;;;5100670;28;20445;-72
2022/10/29 06:16:52;;;;;;;3.00;1.10;;;15.30;99.90;;;;;;5104238;28;20463;-72
2022/10/29 06:19:21;;;;;;;3.17;1.00;;;15.30;99.90;;;;;;5102792;28;20477;-73
2022/10/29 06:21:48;;;;;;;2.03;1.10;;;15.20;99.90;;;;;;5100363;28;20454;-72
2022/10/29 06:24:15;;;;;;;1.13;1.00;;;15.20;99.90;;;;;;5105125;28;20461;-72
2022/10/29 06:26:42;;;;;;;1.80;1.07;;;15.20;99.90;;;;;;5096629;28;20462;-71
2022/10/29 06:29:09;;;;;;;2.37;1.00;;;15.30;99.90;;;;;;5102305;28;20829;-71
2022/10/29 06:31:36;;;;;;;1.70;0.90;;;15.20;99.90;;;;;;5102239;28;20457;-72
2022/10/29 06:34:03;;;;;;;3.60;1.13;;;15.30;99.90;;;;;;5099002;28;21066;-72
2022/10/29 06:36:31;;;;;;;3.20;1.10;;;15.20;99.90;;;;;;5098537;28;20520;-71
2022/10/29 06:38:58;;;;;;;3.10;1.00;;;15.10;99.90;;;;;;5099630;28;20767;-71
2022/10/29 06:41:26;;;;;;;2.97;1.63;;;15.10;99.90;;;;;;5103710;28;20453;-72
2022/10/29 06:43:53;;;;;;;2.43;1.10;;;15.10;99.90;;;;;;5104638;28;20515;-71
2022/10/29 06:46:20;;;;;;;3.40;1.17;;;15.10;99.90;;;;;;5109760;28;20489;-72
2022/10/29 06:48:47;;;;;;;2.30;1.00;;;15.00;99.90;;;;;;5102624;28;20928;-72
2022/10/29 06:51:14;;;;;;;1.73;1.00;;;15.10;99.90;;;;;;5096188;28;20484;-72
2022/10/29 06:53:42;;;;;;;4.10;1.00;;;15.10;99.90;;;;;;5108435;28;20459;-71
2022/10/29 06:56:09;;;;;;;2.17;1.30;;;15.10;99.90;;;;;;5100262;28;20449;-72
2022/10/29 06:58:37;;;;;;;2.53;0.90;;;15.20;99.90;;;;;;5116512;28;20444;-71
2022/10/29 07:01:04;;;;;;;2.20;1.10;;;15.20;99.90;;;;;;5116749;28;20736;-71
2022/10/29 07:03:31;;;;;;;6.73;1.30;;;15.20;99.90;;;;;;5116101;28;20441;-71
2022/10/29 07:05:59;;;;;;;4.07;1.57;;;15.20;99.90;;;;;;5116528;28;20880;-70
2022/10/29 07:08:27;;;;;;;3.40;1.20;;;15.10;99.90;;;;;;5106011;28;20485;-71
2022/10/29 07:10:56;;;;;;;2.53;1.10;;;15.20;99.90;;;;;;5101468;28;20465;-72
2022/10/29 07:13:23;;;;;;;1.60;1.17;;;15.20;99.90;;;;;;5108631;28;20452;-72
2022/10/29 07:15:50;;;;;;;4.50;1.50;;;15.20;99.90;;;;;;5099644;28;20864;-71
2022/10/29 07:18:17;;;;;;;3.07;1.70;;;15.20;99.90;;;;;;5096889;28;21142;-71
2022/10/29 07:20:45;;;;;;;4.13;1.60;;;15.10;99.90;;;;;;5097483;28;20459;-71
2022/10/29 07:23:13;;;;;;;2.13;1.30;;;15.00;99.90;;;;;;5111984;28;20452;-71
2022/10/29 07:25:41;;;;;;;2.47;1.10;;;14.90;99.90;;;;;;5099364;28;20807;-72
2022/10/29 07:28:12;;;;;;;4.17;1.07;;;14.90;99.90;;;;;;5094265;28;21185;-71
2022/10/29 07:30:39;;;;;;;3.03;1.60;;;14.90;99.90;;;;;;5095761;28;20455;-72
2022/10/29 07:33:07;;;;;;;4.50;2.10;;;15.00;99.90;;;;;;5112582;28;20456;-71
2022/10/29 07:35:35;;;;;;;3.20;1.40;;;15.10;99.90;;;;;;5113058;28;20544;-70
2022/10/29 07:38:03;;;;;;;2.10;1.27;;;15.10;99.90;;;;;;5095662;28;20438;-74
2022/10/29 07:40:30;;;;;;;4.23;1.20;;;15.20;99.90;;;;;;5096743;28;20481;-71
2022/10/29 07:42:57;;;;;;;5.90;1.27;;;15.30;99.90;;;;;;5109105;28;20463;-72
2022/10/29 07:45:26;;;;;;;2.10;1.40;;;15.40;99.90;;;;;;5116394;28;20884;-71
2022/10/29 07:47:59;;;;;;;1.93;1.20;;;15.50;99.90;;;;;;5115120;28;20473;-72
2022/10/29 07:50:27;;;;;;;2.20;1.37;;;15.60;99.90;;;;;;5115988;28;20453;-71
2022/10/29 07:52:54;;;;;;;3.57;2.00;;;15.70;99.90;;;;;;5113122;28;20445;-72
2022/10/29 07:55:21;;;;;;;5.90;4.00;;;15.80;99.90;;;;;;5099060;28;20452;-72
2022/10/29 07:57:48;;;;;;;3.50;1.43;;;15.90;99.20;;;;;;5097239;28;21222;-72
2022/10/29 08:00:15;;;;;;;2.80;1.20;;;16.10;85.00;;;;;;5097014;28;20469;-72
2022/10/29 08:02:44;;;;;;;4.03;1.77;;;16.20;54.40;;;;;;5110896;28;20445;-72
2022/10/29 08:05:11;;;;;;;2.00;1.17;;;16.40;41.70;;;;;;5107163;28;20449;-72
2022/10/29 08:07:38;;;;;;;5.40;1.20;;;16.40;32.70;;;;;;5106734;28;20458;-71
2022/10/29 08:10:06;;;;;;;4.50;1.30;;;16.50;1.10;;;;;;5102513;28;20456;-71
2022/10/29 08:12:34;;;;;;;3.83;1.10;;;16.60;2.50;;;;;;5108521;28;20453;-71
2022/10/29 08:15:01;;;;;;;4.07;1.40;;;16.80;1.00;;;;;;5110543;28;20444;-71
2022/10/29 08:17:29;;;;;;;5.30;2.60;;;16.90;1.00;;;;;;5097658;28;20884;-71
2022/10/29 08:19:58;;;;;;;2.30;1.30;;;17.00;1.00;;;;;;5097810;28;20481;-71
2022/10/29 08:22:25;;;;;;;8.80;1.30;;;17.20;1.00;;;;;;5097481;28;20454;-71
2022/10/29 08:24:52;;;;;;;4.93;1.20;;;17.30;1.00;;;;;;5107748;28;20877;-72
2022/10/29 08:27:19;;;;;;;2.00;1.10;;;17.40;1.00;;;;;;5097827;28;20453;-71
2022/10/29 08:29:46;;;;;;;3.57;1.20;;;17.50;1.00;;;;;;5098023;28;20473;-71
2022/10/29 08:32:13;;;;;;;2.23;1.43;;;17.60;1.00;;;;;;5115181;28;20457;-71
2022/10/29 08:34:40;;;;;;;12.87;7.23;;;17.60;1.00;;;;;;5096956;28;20900;-71
2022/10/29 08:37:08;;;;;;;5.07;3.27;;;17.70;1.00;;;;;;5097336;28;20457;-71
2022/10/29 08:39:36;;;;;;;4.33;1.53;;;17.70;1.00;;;;;;5099674;28;20450;-71
2022/10/29 08:42:16;;;;;;;3.90;1.80;;;17.80;1.00;;;;;;5117746;28;20898;-71
2022/10/29 08:45:05;;;;;;;5.83;1.20;;;17.70;1.00;;;;;;5100912;28;20900;-72
2022/10/29 08:47:42;;;;;;;2.87;1.30;;;17.80;1.00;;;;;;5104730;28;20437;-72
2022/10/29 08:50:19;;;;;;;2.13;1.63;;;17.90;1.00;;;;;;5100027;28;20481;-72
2022/10/29 08:52:48;;;;;;;3.03;1.03;;;18.00;1.00;;;;;;5117689;28;20444;-72
2022/10/29 08:55:18;;;;;;;7.80;2.07;;;18.10;1.00;;;;;;5108637;28;20484;-72
2022/10/29 08:57:51;;;;;;;1.97;1.47;;;18.10;1.00;;;;;;5097679;28;20453;-72
2022/10/29 09:00:20;;;;;;;2.10;1.50;;;18.20;1.00;;;;;;5101623;28;20453;-72
2022/10/29 09:02:51;;;;;;;2.70;1.33;;;18.20;1.00;;;;;;5117933;28;20922;-72
2022/10/29 09:05:24;;;;;;;15.70;2.30;;;18.30;1.00;;;;;;5105603;28;20770;-73
2022/10/29 09:08:15;;;;;;;4.93;2.27;;;18.40;1.00;;;;;;5099954;28;21095;-72
2022/10/29 09:10:47;;;;;;;51.30;10.53;;;18.40;1.00;;;;;;5102205;28;20460;-72
2022/10/29 09:13:31;;;;;;;29.23;6.50;;;18.50;1.00;;;;;;5098150;28;20446;-72
2022/10/29 09:16:10;;;;;;;15.67;3.20;;;18.50;1.00;;;;;;5097416;28;20814;-72
2022/10/29 09:18:50;;;;;;;14.83;2.67;;;18.60;1.00;;;;;;5103160;28;20484;-72
2022/10/29 09:21:29;;;;;;;7.37;1.67;;;18.60;1.00;;;;;;5102892;28;20481;-72
2022/10/29 09:24:07;;;;;;;4.80;2.07;;;18.60;1.00;;;;;;5101092;28;20799;-73
2022/10/29 09:26:43;;;;;;;4.80;1.40;;;18.70;1.00;;;;;;5102763;28;20464;-72
2022/10/29 09:29:34;;;;;;;3.37;1.27;;;18.70;1.00;;;;;;5105153;28;20476;-72
2022/10/29 09:32:05;;;;;;;1.73;1.23;;;18.80;1.00;;;;;;5104684;28;20901;-71
2022/10/29 09:34:40;;;;;;;3.57;1.37;;;18.80;1.00;;;;;;5109529;27;20743;-72
2022/10/29 09:37:15;;;;;;;2.60;1.17;;;18.90;99.90;;;;;;5104024;28;20460;-72
2022/10/29 09:39:46;;;;;;;1.93;1.10;;;18.90;99.90;;;;;;5104230;28;20789;-72
2022/10/29 09:42:17;;;;;;;4.47;1.20;;;18.90;99.90;;;;;;5097474;28;20488;-72
2022/10/29 09:44:49;;;;;;;3.80;1.30;;;18.90;99.90;;;;;;5102388;28;20892;-72
2022/10/29 09:47:28;;;;;;;2.73;1.07;;;19.00;1.00;;;;;;5114955;28;20453;-71
2022/10/29 09:50:06;;;;;;;3.00;1.10;;;19.00;1.00;;;;;;5099672;28;20485;-72
2022/10/29 09:52:36;;;;;;;2.60;1.27;;;19.10;99.90;;;;;;5107451;28;20452;-72
2022/10/29 09:55:07;;;;;;;3.10;1.20;;;19.10;99.90;;;;;;5096442;28;20449;-72
2022/10/29 09:57:35;;;;;;;3.10;1.20;;;19.20;99.90;;;;;;5106417;28;20891;-72
2022/10/29 10:00:06;;;;;;;10.63;1.00;;;19.30;99.90;;;;;;5101732;28;20463;-72
2022/10/29 10:02:37;;;;;;;2.80;1.20;;;19.30;99.90;;;;;;5101153;27;20535;-71
2022/10/29 10:05:06;;;;;;;2.43;1.30;;;19.40;41.50;;;;;;5108430;27;21164;-72
2022/10/29 10:07:34;;;;;;;2.03;1.10;;;19.50;1.00;;;;;;5113426;28;20872;-72
2022/10/29 10:10:02;;;;;;;2.07;1.10;;;19.60;1.00;;;;;;5111085;28;20492;-72
2022/10/29 10:12:45;;;;;;;2.97;1.07;;;19.60;1.00;;;;;;5099282;27;21096;-73
2022/10/29 10:15:28;;;;;;;3.80;1.13;;;19.70;1.00;;;;;;5111972;27;20456;-73
2022/10/29 10:18:00;;;;;;;3.53;1.20;;;19.80;1.00;;;;;;5113699;27;20448;-73
2022/10/29 10:20:32;;;;;;;3.27;1.10;;;19.80;1.00;;;;;;5103900;28;20484;-71
2022/10/29 10:22:59;;;;;;;2.03;1.30;;;19.90;99.90;;;;;;5111418;28;20494;-70
2022/10/29 10:25:37;;;;;;;1.20;1.00;;;20.10;99.90;;;;;;5099667;28;20470;-71
2022/10/29 10:28:17;;;;;;;2.90;1.50;;;20.20;99.90;;;;;;5096602;28;20434;-71
2022/10/29 10:30:44;;;;;;;4.70;1.00;;;20.30;99.90;;;;;;5111439;28;20510;-71
2022/10/29 10:33:23;;;;;;;8.53;2.67;;;20.50;42.40;;;;;;5100494;28;20445;-71
2022/10/29 10:35:50;;;;;;;10.67;1.97;;;20.60;99.90;;;;;;5108742;28;20461;-72
2022/10/29 10:38:17;;;;;;;6.00;1.00;;;20.80;93.60;;;;;;5114713;28;20468;-72
2022/10/29 10:40:45;;;;;;;2.60;1.00;;;20.90;1.00;;;;;;5100502;28;20909;-71
2022/10/29 10:43:20;;;;;;;2.97;1.10;;;21.00;99.90;;;;;;5098222;28;20456;-71
2022/10/29 10:45:54;;;;;;;3.37;1.00;;;21.10;99.90;;;;;;5100582;28;20970;-73
2022/10/29 10:48:25;;;;;;;2.10;1.20;;;21.20;1.00;;;;;;5111362;28;20813;-73
2022/10/29 10:51:08;;;;;;;3.30;1.07;;;21.30;1.00;;;;;;5108545;28;20970;-73
2022/10/29 10:53:36;;;;;;;2.60;1.00;;;21.40;1.00;;;;;;5096250;28;20433;-71
2022/10/29 10:56:03;;;;;;;6.87;1.63;;;21.60;99.90;;;;;;5105416;28;20453;-71
2022/10/29 10:58:39;;;;;;;7.70;1.43;;;21.70;99.90;;;;;;5110485;28;20442;-72
2022/10/29 11:01:12;;;;;;;2.97;1.33;;;21.80;99.90;;;;;;5098292;28;20880;-71
2022/10/29 11:03:43;;;;;;;4.90;2.80;;;21.90;92.60;;;;;;5103880;28;20461;-71
2022/10/29 11:06:14;;;;;;;3.50;1.20;;;22.00;1.00;;;;;;5093031;28;20466;-71
2022/10/29 11:08:46;;;;;;;2.80;2.10;;;22.00;1.00;;;;;;5101006;28;20465;-72
2022/10/29 11:11:19;;;;;;;4.00;1.10;;;22.10;1.00;;;;;;5097489;28;20446;-71
2022/10/29 11:13:49;;;;;;;2.63;1.40;;;22.20;1.00;;;;;;5101625;28;20449;-71
2022/10/29 11:16:27;;;;;;;6.17;1.50;;;22.30;1.00;;;;;;5108884;28;20912;-71
2022/10/29 11:19:00;;;;;;;2.47;1.40;;;22.40;1.00;;;;;;5104843;28;20504;-71
2022/10/29 11:21:33;;;;;;;4.27;1.30;;;22.40;1.00;;;;;;5101510;28;20457;-71
2022/10/29 11:24:07;;;;;;;3.97;1.27;;;22.50;1.00;;;;;;5115090;28;20459;-72
2022/10/29 11:26:39;;;;;;;3.23;1.30;;;22.50;1.00;;;;;;5107931;28;20472;-72
2022/10/29 11:29:17;;;;;;;2.27;1.20;;;22.70;1.00;;;;;;5101990;28;20572;-72
2022/10/29 11:31:54;;;;;;;3.80;1.30;;;22.80;1.00;;;;;;5114535;28;20457;-72
2022/10/29 11:34:26;;;;;;;3.80;1.10;;;22.90;1.00;;;;;;5102671;28;20534;-72
2022/10/29 11:36:58;;;;;;;2.80;1.53;;;23.00;1.00;;;;;;5113673;28;20472;-71
2022/10/29 11:39:31;;;;;;;5.30;1.43;;;23.00;1.00;;;;;;5109176;28;20459;-72
2022/10/29 11:41:59;;;;;;;3.90;1.70;;;23.10;99.90;;;;;;5112066;28;20758;-71
2022/10/29 11:44:31;;;;;;;6.43;1.80;;;23.10;99.90;;;;;;5114566;28;20838;-72
2022/10/29 11:47:18;;;;;;;2.77;1.30;;;23.20;99.90;;;;;;5113077;28;20478;-71
2022/10/29 11:50:06;;;;;;;6.07;1.60;;;23.20;99.90;;;;;;5111436;28;20511;-72
2022/10/29 11:52:40;;;;;;;4.47;1.33;;;23.30;1.00;;;;;;5107290;27;20457;-72
2022/10/29 11:55:19;;;;;;;3.00;1.67;;;23.30;1.00;;;;;;5109528;28;20452;-71
2022/10/29 11:57:54;;;;;;;3.43;1.27;;;23.40;1.00;;;;;;5105165;28;20433;-72
2022/10/29 12:00:24;;;;;;;4.47;1.23;;;23.40;99.90;;;;;;5110589;28;20443;-72
2022/10/29 12:03:13;;;;;;;8.27;1.20;;;23.40;99.90;;;;;;5119005;28;20470;-71
2022/10/29 12:05:44;;;;;;;4.93;1.30;;;23.40;99.90;;;;;;5118192;28;20855;-71
2022/10/29 12:08:26;;;;;;;3.53;1.50;;;23.50;99.90;;;;;;5109866;28;20442;-72
2022/10/29 12:11:01;;;;;;;3.27;1.67;;;23.50;99.90;;;;;;5117645;28;21097;-71
2022/10/29 12:13:45;;;;;;;5.70;2.97;;;23.50;99.90;;;;;;5113139;28;20444;-72
2022/10/29 12:16:27;;;;;;;5.50;2.37;;;23.60;99.90;;;;;;5118382;28;20483;-71
2022/10/29 12:19:03;;;;;;;6.40;1.30;;;23.50;1.00;;;;;;5115102;28;20478;-71
2022/10/29 12:21:40;;;;;;;3.43;2.67;;;23.50;1.00;;;;;;5110786;28;20454;-72
2022/10/29 12:24:18;;;;;;;7.37;1.50;;;23.50;1.00;;;;;;5096564;28;20520;-72
2022/10/29 12:26:53;;;;;;;5.23;1.33;;;23.40;1.00;;;;;;5105788;28;20460;-71
2022/10/29 12:29:25;;;;;;;3.40;1.30;;;23.50;99.90;;;;;;5102049;28;20473;-71
2022/10/29 12:32:03;;;;;;;6.30;1.93;;;23.50;99.90;;;;;;5106549;28;20453;-72
2022/10/29 12:34:36;;;;;;;2.73;1.50;;;23.50;1.00;;;;;;5114917;28;20967;-72
2022/10/29 12:37:08;;;;;;;2.83;1.27;;;23.40;1.00;;;;;;5116268;28;20449;-71
2022/10/29 12:39:39;;;;;;;3.30;1.10;;;23.40;1.00;;;;;;5113205;28;20907;-71
2022/10/29 12:42:14;;;;;;;4.77;1.30;;;23.30;1.00;;;;;;5118349;28;20456;-71
2022/10/29 12:44:46;;;;;;;1.53;1.00;;;23.10;1.00;;;;;;5099906;28;20433;-71
2022/10/29 12:47:20;;;;;;;7.47;2.70;;;23.10;1.00;;;;;;5119438;28;20453;-71
2022/10/29 12:50:01;;;;;;;6.13;1.97;;;23.10;1.00;;;;;;5112167;28;20475;-71
2022/10/29 12:52:34;;;;;;;3.20;1.10;;;23.00;1.00;;;;;;5115449;28;20441;-71
2022/10/29 12:55:06;;;;;;;3.13;1.27;;;23.00;1.00;;;;;;5114394;28;20443;-72
2022/10/29 12:57:35;;;;;;;4.63;1.27;;;23.00;1.00;;;;;;5119002;28;20738;-72
2022/10/29 13:00:44;;;;;;;7.10;2.10;;;23.10;1.00;;;;;;5112032;28;20440;-72
2022/10/29 13:03:28;;;;;;;2.63;1.40;;;23.10;1.00;;;;;;5113646;27;20429;-72
2022/10/29 13:05:55;;;;;;;1.60;1.20;;;23.00;6.10;;;;;;5111395;28;20444;-71